sensor_id;sensor_type;location;lat;lon;timestamp;temperature;humidity
6379;DHT22;3222;48.858;10.128;2022-09-09T00:04:33;15.90;99.90
6379;DHT22;3222;48.858;10.128;2022-09-09T00:09:33;15.80;99.90
6379;DHT22;3222;48.858;10.128;2022-09-09T00:12:06;15.80;99.90
6379;DHT22;3222;48.858;10.128;2022-09-09T00:14:55;15.80;99.90
6379;DHT22;3222;48.858;10.128;2022-09-09T00:17:43;15.80;99.90
6379;DHT22;3222;48.858;10.128;2022-09-09T00:20:29;15.70;99.90
6379;DHT22;3222;48.858;10.128;2022-09-09T00:23:33;15.80;99.90
6379;DHT22;3222;48.858;10.128;2022-09-09T00:28:33;15.70;99.90
6379;DHT22;3222;48.858;10.128;2022-09-09T00:31:11;15.70;99.90
6379;DHT22;3222;48.858;10.128;2022-09-09T00:33:38;15.70;99.90
6379;DHT22;3222;48.858;10.128;2022-09-09T00:36:12;15.70;99.90
6379;DHT22;3222;48.858;10.128;2022-09-09T00:38:43;15.60;99.90
6379;DHT22;3222;48.858;10.128;2022-09-09T00:43:57;15.60;99.90
6379;DHT22;3222;48.858;10.128;2022-09-09T00:49:39;15.60;99.90
6379;DHT22;3222;48.858;10.128;2022-09-09T00:55:12;15.60;99.90
6379;DHT22;3222;48.858;10.128;2022-09-09T00:57:40;15.60;99.90
6379;DHT22;3222;48.858;10.128;2022-09-09T01:00:29;15.60;99.90
6379;DHT22;3222;48.858;10.128;2022-09-09T01:03:19;15.60;99.90
6379;DHT22;3222;48.858;10.128;2022-09-09T01:11:35;15.60;99.90
6379;DHT22;3222;48.858;10.128;2022-09-09T01:14:20;15.60;99.90
6379;DHT22;3222;48.858;10.128;2022-09-09T01:16:50;15.60;99.90
6379;DHT22;3222;48.858;10.128;2022-09-09T01:19:27;15.60;99.90
6379;DHT22;3222;48.858;10.128;2022-09-09T01:22:03;15.60;99.90
6379;DHT22;3222;48.858;10.128;2022-09-09T01:25:01;15.60;99.90
6379;DHT22;3222;48.858;10.128;2022-09-09T01:27:52;15.60;99.90
6379;DHT22;3222;48.858;10.128;2022-09-09T01:30:20;15.60;99.90
6379;DHT22;3222;48.858;10.128;2022-09-09T01:32:54;15.60;99.90
6379;DHT22;3222;48.858;10.128;2022-09-09T01:35:54;15.60;99.90
6379;DHT22;3222;48.858;10.128;2022-09-09T01:38:24;15.60;99.90
6379;DHT22;3222;48.858;10.128;2022-09-09T01:40:52;15.60;99.90
6379;DHT22;3222;48.858;10.128;2022-09-09T01:43:21;15.60;99.90
6379;DHT22;3222;48.858;10.128;2022-09-09T01:45:50;15.60;99.90
6379;DHT22;3222;48.858;10.128;2022-09-09T01:48:18;15.60;99.90
6379;DHT22;3222;48.858;10.128;2022-09-09T01:50:58;15.60;99.90
6379;DHT22;3222;48.858;10.128;2022-09-09T01:53:23;15.60;99.90
6379;DHT22;3222;48.858;10.128;2022-09-09T02:02:10;15.60;99.90
6379;DHT22;3222;48.858;10.128;2022-09-09T02:04:23;15.60;99.90
6379;DHT22;3222;48.858;10.128;2022-09-09T02:06:56;15.50;99.90
6379;DHT22;3222;48.858;10.128;2022-09-09T02:09:26;15.50;99.90
6379;DHT22;3222;48.858;10.128;2022-09-09T02:12:08;15.50;99.90
6379;DHT22;3222;48.858;10.128;2022-09-09T02:14:46;15.50;99.90
6379;DHT22;3222;48.858;10.128;2022-09-09T02:17:16;15.50;99.90
6379;DHT22;3222;48.858;10.128;2022-09-09T02:20:03;15.50;99.90
6379;DHT22;3222;48.858;10.128;2022-09-09T02:22:42;15.50;99.90
6379;DHT22;3222;48.858;10.128;2022-09-09T02:25:14;15.60;99.90
6379;DHT22;3222;48.858;10.128;2022-09-09T02:27:44;15.50;99.90
6379;DHT22;3222;48.858;10.128;2022-09-09T02:30:11;15.50;99.90
6379;DHT22;3222;48.858;10.128;2022-09-09T02:32:42;15.50;99.90
6379;DHT22;3222;48.858;10.128;2022-09-09T02:35:17;15.40;99.90
6379;DHT22;3222;48.858;10.128;2022-09-09T02:37:46;15.40;99.90
6379;DHT22;3222;48.858;10.128;2022-09-09T02:40:13;15.40;99.90
6379;DHT22;3222;48.858;10.128;2022-09-09T02:42:46;15.30;99.90
6379;DHT22;3222;48.858;10.128;2022-09-09T02:45:16;15.30;99.90
6379;DHT22;3222;48.858;10.128;2022-09-09T02:48:14;15.30;99.90
6379;DHT22;3222;48.858;10.128;2022-09-09T02:50:58;15.20;99.90
6379;DHT22;3222;48.858;10.128;2022-09-09T02:53:39;15.20;99.90
6379;DHT22;3222;48.858;10.128;2022-09-09T02:56:21;15.20;99.90
6379;DHT22;3222;48.858;10.128;2022-09-09T02:58:49;15.20;99.90
6379;DHT22;3222;48.858;10.128;2022-09-09T03:01:17;15.20;99.90
6379;DHT22;3222;48.858;10.128;2022-09-09T03:03:43;15.20;99.90
6379;DHT22;3222;48.858;10.128;2022-09-09T03:06:13;15.20;99.90
6379;DHT22;3222;48.858;10.128;2022-09-09T03:08:40;15.20;99.90
6379;DHT22;3222;48.858;10.128;2022-09-09T03:11:07;15.20;99.90
6379;DHT22;3222;48.858;10.128;2022-09-09T03:13:35;15.20;99.90
6379;DHT22;3222;48.858;10.128;2022-09-09T03:16:02;15.20;99.90
6379;DHT22;3222;48.858;10.128;2022-09-09T03:18:32;15.20;99.90
6379;DHT22;3222;48.858;10.128;2022-09-09T03:20:57;15.20;99.90
6379;DHT22;3222;48.858;10.128;2022-09-09T03:23:25;15.20;99.90
6379;DHT22;3222;48.858;10.128;2022-09-09T03:25:51;15.20;99.90
6379;DHT22;3222;48.858;10.128;2022-09-09T03:28:21;15.20;99.90
6379;DHT22;3222;48.858;10.128;2022-09-09T03:30:47;15.20;99.90
6379;DHT22;3222;48.858;10.128;2022-09-09T03:33:14;15.20;99.90
6379;DHT22;3222;48.858;10.128;2022-09-09T03:35:46;15.10;99.90
6379;DHT22;3222;48.858;10.128;2022-09-09T03:38:15;15.20;99.90
6379;DHT22;3222;48.858;10.128;2022-09-09T03:40:49;15.10;99.90
6379;DHT22;3222;48.858;10.128;2022-09-09T03:43:15;15.10;99.90
6379;DHT22;3222;48.858;10.128;2022-09-09T03:45:46;15.10;99.90
6379;DHT22;3222;48.858;10.128;2022-09-09T03:48:15;15.10;99.90
6379;DHT22;3222;48.858;10.128;2022-09-09T03:50:50;15.10;99.90
6379;DHT22;3222;48.858;10.128;2022-09-09T03:53:17;15.10;99.90
6379;DHT22;3222;48.858;10.128;2022-09-09T03:55:46;15.00;99.90
6379;DHT22;3222;48.858;10.128;2022-09-09T03:58:15;15.10;99.90
6379;DHT22;3222;48.858;10.128;2022-09-09T04:00:42;15.00;99.90
6379;DHT22;3222;48.858;10.128;2022-09-09T04:03:09;15.00;99.90
6379;DHT22;3222;48.858;10.128;2022-09-09T04:05:35;15.00;99.90
6379;DHT22;3222;48.858;10.128;2022-09-09T04:08:01;15.00;99.90
6379;DHT22;3222;48.858;10.128;2022-09-09T04:10:26;15.00;99.90
6379;DHT22;3222;48.858;10.128;2022-09-09T04:12:53;15.00;99.90
6379;DHT22;3222;48.858;10.128;2022-09-09T04:15:20;15.10;99.90
6379;DHT22;3222;48.858;10.128;2022-09-09T04:17:46;15.10;99.90
6379;DHT22;3222;48.858;10.128;2022-09-09T04:20:12;15.10;99.90
6379;DHT22;3222;48.858;10.128;2022-09-09T04:22:38;15.10;99.90
6379;DHT22;3222;48.858;10.128;2022-09-09T04:25:06;15.10;99.90
6379;DHT22;3222;48.858;10.128;2022-09-09T04:27:32;15.10;99.90
6379;DHT22;3222;48.858;10.128;2022-09-09T04:29:58;15.00;99.90
6379;DHT22;3222;48.858;10.128;2022-09-09T04:32:26;15.00;99.90
6379;DHT22;3222;48.858;10.128;2022-09-09T04:34:54;15.10;99.90
6379;DHT22;3222;48.858;10.128;2022-09-09T04:37:20;15.10;99.90
6379;DHT22;3222;48.858;10.128;2022-09-09T04:39:46;15.10;99.90
6379;DHT22;3222;48.858;10.128;2022-09-09T04:42:12;15.10;99.90
6379;DHT22;3222;48.858;10.128;2022-09-09T04:44:38;15.00;99.90
6379;DHT22;3222;48.858;10.128;2022-09-09T04:47:05;15.00;99.90
6379;DHT22;3222;48.858;10.128;2022-09-09T04:49:31;15.00;99.90
6379;DHT22;3222;48.858;10.128;2022-09-09T04:51:58;15.00;99.90
6379;DHT22;3222;48.858;10.128;2022-09-09T04:54:24;15.00;99.90
6379;DHT22;3222;48.858;10.128;2022-09-09T04:56:50;15.00;99.90
6379;DHT22;3222;48.858;10.128;2022-09-09T04:59:16;15.00;99.90
6379;DHT22;3222;48.858;10.128;2022-09-09T05:01:49;15.00;99.90
6379;DHT22;3222;48.858;10.128;2022-09-09T05:04:16;15.00;99.90
6379;DHT22;3222;48.858;10.128;2022-09-09T05:06:42;15.00;99.90
6379;DHT22;3222;48.858;10.128;2022-09-09T05:09:08;15.00;99.90
6379;DHT22;3222;48.858;10.128;2022-09-09T05:11:34;15.00;99.90
6379;DHT22;3222;48.858;10.128;2022-09-09T05:14:13;15.10;99.90
6379;DHT22;3222;48.858;10.128;2022-09-09T05:16:40;15.10;99.90
6379;DHT22;3222;48.858;10.128;2022-09-09T05:19:06;15.10;99.90
6379;DHT22;3222;48.858;10.128;2022-09-09T05:21:46;15.10;99.90
6379;DHT22;3222;48.858;10.128;2022-09-09T05:24:13;15.10;99.90
6379;DHT22;3222;48.858;10.128;2022-09-09T05:26:40;15.10;99.90
6379;DHT22;3222;48.858;10.128;2022-09-09T05:29:06;15.10;99.90
6379;DHT22;3222;48.858;10.128;2022-09-09T05:31:33;15.10;99.90
6379;DHT22;3222;48.858;10.128;2022-09-09T05:34:03;15.10;99.90
6379;DHT22;3222;48.858;10.128;2022-09-09T05:36:28;15.10;99.90
6379;DHT22;3222;48.858;10.128;2022-09-09T05:38:55;15.20;99.90
6379;DHT22;3222;48.858;10.128;2022-09-09T05:41:23;15.20;99.90
6379;DHT22;3222;48.858;10.128;2022-09-09T05:43:50;15.10;99.90
6379;DHT22;3222;48.858;10.128;2022-09-09T05:46:22;15.10;99.90
6379;DHT22;3222;48.858;10.128;2022-09-09T05:48:51;15.10;99.90
6379;DHT22;3222;48.858;10.128;2022-09-09T05:51:20;15.10;99.90
6379;DHT22;3222;48.858;10.128;2022-09-09T05:53:47;15.10;99.90
6379;DHT22;3222;48.858;10.128;2022-09-09T05:56:22;15.10;99.90
6379;DHT22;3222;48.858;10.128;2022-09-09T05:58:49;15.20;99.90
6379;DHT22;3222;48.858;10.128;2022-09-09T06:01:22;15.10;99.90
6379;DHT22;3222;48.858;10.128;2022-09-09T06:03:50;15.10;99.90
6379;DHT22;3222;48.858;10.128;2022-09-09T06:06:18;15.20;99.90
6379;DHT22;3222;48.858;10.128;2022-09-09T06:08:47;15.20;99.90
6379;DHT22;3222;48.858;10.128;2022-09-09T06:11:18;15.20;99.90
6379;DHT22;3222;48.858;10.128;2022-09-09T06:13:44;15.20;99.90
6379;DHT22;3222;48.858;10.128;2022-09-09T06:16:12;15.20;99.90
6379;DHT22;3222;48.858;10.128;2022-09-09T06:18:40;15.20;99.90
6379;DHT22;3222;48.858;10.128;2022-09-09T06:21:08;15.30;99.90
6379;DHT22;3222;48.858;10.128;2022-09-09T06:23:34;15.30;99.90
6379;DHT22;3222;48.858;10.128;2022-09-09T06:26:06;15.30;99.90
6379;DHT22;3222;48.858;10.128;2022-09-09T06:28:33;15.30;99.90
6379;DHT22;3222;48.858;10.128;2022-09-09T06:31:05;15.40;99.90
6379;DHT22;3222;48.858;10.128;2022-09-09T06:33:36;15.50;99.90
6379;DHT22;3222;48.858;10.128;2022-09-09T06:36:04;15.50;99.90
6379;DHT22;3222;48.858;10.128;2022-09-09T06:38:31;15.50;99.90
6379;DHT22;3222;48.858;10.128;2022-09-09T06:40:58;15.50;99.90
6379;DHT22;3222;48.858;10.128;2022-09-09T06:43:25;15.50;99.90
6379;DHT22;3222;48.858;10.128;2022-09-09T06:46:14;15.50;99.90
6379;DHT22;3222;48.858;10.128;2022-09-09T06:48:41;15.70;99.90
6379;DHT22;3222;48.858;10.128;2022-09-09T06:51:17;15.80;99.90
6379;DHT22;3222;48.858;10.128;2022-09-09T06:53:45;15.80;99.90
6379;DHT22;3222;48.858;10.128;2022-09-09T06:56:20;15.90;99.90
6379;DHT22;3222;48.858;10.128;2022-09-09T06:58:47;16.00;99.90
6379;DHT22;3222;48.858;10.128;2022-09-09T07:01:25;16.00;99.90
6379;DHT22;3222;48.858;10.128;2022-09-09T07:03:55;16.30;99.90
6379;DHT22;3222;48.858;10.128;2022-09-09T07:06:29;16.20;99.90
6379;DHT22;3222;48.858;10.128;2022-09-09T07:08:59;16.20;99.90
6379;DHT22;3222;48.858;10.128;2022-09-09T07:11:29;16.20;99.90
6379;DHT22;3222;48.858;10.128;2022-09-09T07:14:00;16.30;99.90
6379;DHT22;3222;48.858;10.128;2022-09-09T07:16:26;16.30;99.90
6379;DHT22;3222;48.858;10.128;2022-09-09T07:18:58;16.20;99.90
6379;DHT22;3222;48.858;10.128;2022-09-09T07:21:27;16.20;99.90
6379;DHT22;3222;48.858;10.128;2022-09-09T07:23:53;16.20;99.90
6379;DHT22;3222;48.858;10.128;2022-09-09T07:26:21;16.30;99.90
6379;DHT22;3222;48.858;10.128;2022-09-09T07:28:48;16.40;99.90
6379;DHT22;3222;48.858;10.128;2022-09-09T07:31:21;16.50;99.90
6379;DHT22;3222;48.858;10.128;2022-09-09T07:33:47;16.60;99.90
6379;DHT22;3222;48.858;10.128;2022-09-09T07:36:34;16.70;99.90
6379;DHT22;3222;48.858;10.128;2022-09-09T07:39:07;16.70;99.90
6379;DHT22;3222;48.858;10.128;2022-09-09T07:41:38;16.80;99.90
6379;DHT22;3222;48.858;10.128;2022-09-09T07:44:08;16.80;99.90
6379;DHT22;3222;48.858;10.128;2022-09-09T07:46:35;16.90;99.90
6379;DHT22;3222;48.858;10.128;2022-09-09T07:49:01;16.90;99.90
6379;DHT22;3222;48.858;10.128;2022-09-09T07:51:32;16.90;99.90
6379;DHT22;3222;48.858;10.128;2022-09-09T07:54:05;16.90;99.90
6379;DHT22;3222;48.858;10.128;2022-09-09T07:56:33;17.00;99.90
6379;DHT22;3222;48.858;10.128;2022-09-09T07:59:00;17.10;99.90
6379;DHT22;3222;48.858;10.128;2022-09-09T08:01:29;17.20;99.90
6379;DHT22;3222;48.858;10.128;2022-09-09T08:04:13;17.20;99.90
6379;DHT22;3222;48.858;10.128;2022-09-09T08:06:46;17.10;99.90
6379;DHT22;3222;48.858;10.128;2022-09-09T08:09:14;17.30;99.90
6379;DHT22;3222;48.858;10.128;2022-09-09T08:11:41;17.30;99.90
6379;DHT22;3222;48.858;10.128;2022-09-09T08:14:08;17.30;99.90
6379;DHT22;3222;48.858;10.128;2022-09-09T08:16:37;17.40;99.90
6379;DHT22;3222;48.858;10.128;2022-09-09T08:19:05;17.40;99.90
6379;DHT22;3222;48.858;10.128;2022-09-09T08:21:34;17.50;99.90
6379;DHT22;3222;48.858;10.128;2022-09-09T08:24:01;17.60;99.90
6379;DHT22;3222;48.858;10.128;2022-09-09T08:26:29;17.60;99.90
6379;DHT22;3222;48.858;10.128;2022-09-09T08:28:57;17.50;99.90
6379;DHT22;3222;48.858;10.128;2022-09-09T08:33:51;17.50;99.90
6379;DHT22;3222;48.858;10.128;2022-09-09T08:36:19;17.50;99.90
6379;DHT22;3222;48.858;10.128;2022-09-09T08:38:50;17.60;99.90
6379;DHT22;3222;48.858;10.128;2022-09-09T08:46:58;17.60;99.90
6379;DHT22;3222;48.858;10.128;2022-09-09T08:49:55;17.60;99.90
6379;DHT22;3222;48.858;10.128;2022-09-09T08:52:38;17.60;99.90
6379;DHT22;3222;48.858;10.128;2022-09-09T08:58:06;17.80;99.90
6379;DHT22;3222;48.858;10.128;2022-09-09T09:11:44;18.00;99.90
6379;DHT22;3222;48.858;10.128;2022-09-09T09:14:25;18.10;99.90
6379;DHT22;3222;48.858;10.128;2022-09-09T09:17:12;18.00;99.90
6379;DHT22;3222;48.858;10.128;2022-09-09T09:19:41;17.90;99.90
6379;DHT22;3222;48.858;10.128;2022-09-09T09:27:53;18.10;99.90
6379;DHT22;3222;48.858;10.128;2022-09-09T09:30:26;18.20;99.90
6379;DHT22;3222;48.858;10.128;2022-09-09T09:35:24;18.00;99.90
6379;DHT22;3222;48.858;10.128;2022-09-09T09:37:51;18.00;99.90
6379;DHT22;3222;48.858;10.128;2022-09-09T09:40:19;18.20;99.90
6379;DHT22;3222;48.858;10.128;2022-09-09T09:43:00;18.20;99.90
6379;DHT22;3222;48.858;10.128;2022-09-09T09:45:41;18.20;99.90
6379;DHT22;3222;48.858;10.128;2022-09-09T09:48:14;18.30;99.90
6379;DHT22;3222;48.858;10.128;2022-09-09T09:50:49;18.40;99.90
6379;DHT22;3222;48.858;10.128;2022-09-09T09:53:23;18.50;99.90
6379;DHT22;3222;48.858;10.128;2022-09-09T09:55:55;18.50;99.90
6379;DHT22;3222;48.858;10.128;2022-09-09T09:58:22;18.60;99.90
6379;DHT22;3222;48.858;10.128;2022-09-09T10:00:50;18.70;99.90
6379;DHT22;3222;48.858;10.128;2022-09-09T10:03:50;18.60;99.90
6379;DHT22;3222;48.858;10.128;2022-09-09T10:06:16;18.70;99.90
6379;DHT22;3222;48.858;10.128;2022-09-09T10:08:46;18.70;99.90
6379;DHT22;3222;48.858;10.128;2022-09-09T10:11:44;18.80;99.90
6379;DHT22;3222;48.858;10.128;2022-09-09T10:14:17;18.80;99.90
6379;DHT22;3222;48.858;10.128;2022-09-09T10:19:32;18.80;99.90
6379;DHT22;3222;48.858;10.128;2022-09-09T10:25:09;18.90;99.90
6379;DHT22;3222;48.858;10.128;2022-09-09T10:30:53;18.80;99.90
6379;DHT22;3222;48.858;10.128;2022-09-09T10:38:47;18.70;99.90
6379;DHT22;3222;48.858;10.128;2022-09-09T10:44:24;18.60;99.90
6379;DHT22;3222;48.858;10.128;2022-09-09T10:47:06;18.70;99.90
6379;DHT22;3222;48.858;10.128;2022-09-09T10:55:26;18.70;99.90
6379;DHT22;3222;48.858;10.128;2022-09-09T10:57:58;18.80;99.90
6379;DHT22;3222;48.858;10.128;2022-09-09T11:00:39;18.90;99.90
6379;DHT22;3222;48.858;10.128;2022-09-09T11:03:15;19.00;99.90
6379;DHT22;3222;48.858;10.128;2022-09-09T11:05:43;19.00;99.90
6379;DHT22;3222;48.858;10.128;2022-09-09T11:08:20;18.90;99.90
6379;DHT22;3222;48.858;10.128;2022-09-09T11:10:57;19.10;99.90
6379;DHT22;3222;48.858;10.128;2022-09-09T11:13:55;19.30;99.90
6379;DHT22;3222;48.858;10.128;2022-09-09T11:19:50;19.40;99.90
6379;DHT22;3222;48.858;10.128;2022-09-09T11:21:53;19.40;99.90
6379;DHT22;3222;48.858;10.128;2022-09-09T11:24:37;19.40;99.90
6379;DHT22;3222;48.858;10.128;2022-09-09T11:27:20;19.40;99.90
6379;DHT22;3222;48.858;10.128;2022-09-09T11:30:11;19.30;99.90
6379;DHT22;3222;48.858;10.128;2022-09-09T11:35:31;19.20;99.90
6379;DHT22;3222;48.858;10.128;2022-09-09T11:38:31;19.20;99.90
6379;DHT22;3222;48.858;10.128;2022-09-09T11:41:05;19.10;99.90
6379;DHT22;3222;48.858;10.128;2022-09-09T11:43:42;19.40;99.90
6379;DHT22;3222;48.858;10.128;2022-09-09T11:46:10;19.50;99.90
6379;DHT22;3222;48.858;10.128;2022-09-09T11:48:37;19.50;99.90
6379;DHT22;3222;48.858;10.128;2022-09-09T11:51:09;19.60;99.90
6379;DHT22;3222;48.858;10.128;2022-09-09T11:53:57;19.70;99.90
6379;DHT22;3222;48.858;10.128;2022-09-09T11:59:37;19.70;99.90
6379;DHT22;3222;48.858;10.128;2022-09-09T12:02:18;19.80;99.90
6379;DHT22;3222;48.858;10.128;2022-09-09T12:07:28;19.80;99.90
6379;DHT22;3222;48.858;10.128;2022-09-09T12:10:05;19.90;99.90
6379;DHT22;3222;48.858;10.128;2022-09-09T12:12:44;19.90;99.90
6379;DHT22;3222;48.858;10.128;2022-09-09T12:17:42;20.10;99.90
6379;DHT22;3222;48.858;10.128;2022-09-09T12:20:15;20.10;99.90
6379;DHT22;3222;48.858;10.128;2022-09-09T12:31:12;20.10;99.90
6379;DHT22;3222;48.858;10.128;2022-09-09T12:33:44;20.10;99.90
6379;DHT22;3222;48.858;10.128;2022-09-09T12:36:24;20.20;99.90
6379;DHT22;3222;48.858;10.128;2022-09-09T12:38:52;20.10;99.90
6379;DHT22;3222;48.858;10.128;2022-09-09T12:41:26;20.20;99.90
6379;DHT22;3222;48.858;10.128;2022-09-09T12:44:04;20.30;99.90
6379;DHT22;3222;48.858;10.128;2022-09-09T12:46:42;20.20;99.90
6379;DHT22;3222;48.858;10.128;2022-09-09T12:49:30;20.20;99.90
6379;DHT22;3222;48.858;10.128;2022-09-09T12:52:02;20.20;99.90
6379;DHT22;3222;48.858;10.128;2022-09-09T12:54:28;20.20;99.90
6379;DHT22;3222;48.858;10.128;2022-09-09T12:56:54;20.10;99.90
6379;DHT22;3222;48.858;10.128;2022-09-09T12:59:35;20.00;99.90
6379;DHT22;3222;48.858;10.128;2022-09-09T13:02:01;19.90;99.90
6379;DHT22;3222;48.858;10.128;2022-09-09T13:04:27;19.90;99.90
6379;DHT22;3222;48.858;10.128;2022-09-09T13:06:53;19.90;99.90
6379;DHT22;3222;48.858;10.128;2022-09-09T13:09:19;19.90;99.90
6379;DHT22;3222;48.858;10.128;2022-09-09T13:11:52;19.80;99.90
6379;DHT22;3222;48.858;10.128;2022-09-09T13:14:35;19.70;99.90
6379;DHT22;3222;48.858;10.128;2022-09-09T13:17:04;19.80;99.90
6379;DHT22;3222;48.858;10.128;2022-09-09T13:19:37;19.80;99.90
6379;DHT22;3222;48.858;10.128;2022-09-09T13:30:30;19.80;99.90
6379;DHT22;3222;48.858;10.128;2022-09-09T13:33:01;19.80;99.90
6379;DHT22;3222;48.858;10.128;2022-09-09T13:35:27;19.70;99.90
6379;DHT22;3222;48.858;10.128;2022-09-09T13:37:53;19.70;99.90
6379;DHT22;3222;48.858;10.128;2022-09-09T13:40:21;19.90;99.90
6379;DHT22;3222;48.858;10.128;2022-09-09T13:42:50;19.90;99.90
6379;DHT22;3222;48.858;10.128;2022-09-09T13:45:22;20.00;99.90
6379;DHT22;3222;48.858;10.128;2022-09-09T13:47:49;20.00;99.90
6379;DHT22;3222;48.858;10.128;2022-09-09T13:52:53;20.20;99.90
6379;DHT22;3222;48.858;10.128;2022-09-09T13:55:24;20.20;99.90
6379;DHT22;3222;48.858;10.128;2022-09-09T14:00:16;20.40;99.90
6379;DHT22;3222;48.858;10.128;2022-09-09T14:02:42;20.40;99.90
6379;DHT22;3222;48.858;10.128;2022-09-09T14:05:09;20.40;99.90
6379;DHT22;3222;48.858;10.128;2022-09-09T14:07:37;20.50;99.90
6379;DHT22;3222;48.858;10.128;2022-09-09T14:10:04;20.70;99.90
6379;DHT22;3222;48.858;10.128;2022-09-09T14:12:30;20.80;99.90
6379;DHT22;3222;48.858;10.128;2022-09-09T14:14:56;20.70;99.90
6379;DHT22;3222;48.858;10.128;2022-09-09T14:17:21;20.70;99.90
6379;DHT22;3222;48.858;10.128;2022-09-09T14:19:48;20.70;99.90
6379;DHT22;3222;48.858;10.128;2022-09-09T14:22:14;20.70;99.90
6379;DHT22;3222;48.858;10.128;2022-09-09T14:24:39;20.80;99.90
6379;DHT22;3222;48.858;10.128;2022-09-09T14:27:06;21.00;99.90
6379;DHT22;3222;48.858;10.128;2022-09-09T14:29:32;20.90;99.90
6379;DHT22;3222;48.858;10.128;2022-09-09T14:31:58;21.00;99.90
6379;DHT22;3222;48.858;10.128;2022-09-09T14:34:26;21.00;99.90
6379;DHT22;3222;48.858;10.128;2022-09-09T14:36:52;20.70;99.90
6379;DHT22;3222;48.858;10.128;2022-09-09T14:39:17;20.80;99.90
6379;DHT22;3222;48.858;10.128;2022-09-09T14:41:43;20.80;99.90
6379;DHT22;3222;48.858;10.128;2022-09-09T14:44:09;20.80;99.90
6379;DHT22;3222;48.858;10.128;2022-09-09T14:46:35;20.80;99.90
6379;DHT22;3222;48.858;10.128;2022-09-09T14:49:01;20.80;99.90
6379;DHT22;3222;48.858;10.128;2022-09-09T14:51:27;20.80;99.70
6379;DHT22;3222;48.858;10.128;2022-09-09T14:53:55;20.70;99.90
6379;DHT22;3222;48.858;10.128;2022-09-09T14:56:25;20.80;99.90
6379;DHT22;3222;48.858;10.128;2022-09-09T14:58:54;20.90;99.90
6379;DHT22;3222;48.858;10.128;2022-09-09T15:01:21;20.90;99.90
6379;DHT22;3222;48.858;10.128;2022-09-09T15:03:58;20.90;99.90
6379;DHT22;3222;48.858;10.128;2022-09-09T15:06:26;21.00;99.80
6379;DHT22;3222;48.858;10.128;2022-09-09T15:08:53;21.00;99.60
6379;DHT22;3222;48.858;10.128;2022-09-09T15:11:20;21.00;99.40
6379;DHT22;3222;48.858;10.128;2022-09-09T15:13:46;20.70;99.80
6379;DHT22;3222;48.858;10.128;2022-09-09T15:16:17;20.80;99.80
6379;DHT22;3222;48.858;10.128;2022-09-09T15:18:44;20.90;99.60
6379;DHT22;3222;48.858;10.128;2022-09-09T15:21:15;20.90;99.50
6379;DHT22;3222;48.858;10.128;2022-09-09T15:23:42;20.80;99.40
6379;DHT22;3222;48.858;10.128;2022-09-09T15:26:08;20.60;99.60
6379;DHT22;3222;48.858;10.128;2022-09-09T15:28:36;20.50;99.90
6379;DHT22;3222;48.858;10.128;2022-09-09T15:31:14;20.50;99.90
6379;DHT22;3222;48.858;10.128;2022-09-09T15:33:50;20.60;99.90
6379;DHT22;3222;48.858;10.128;2022-09-09T15:36:27;20.60;99.90
6379;DHT22;3222;48.858;10.128;2022-09-09T15:38:58;20.60;99.90
6379;DHT22;3222;48.858;10.128;2022-09-09T15:41:24;20.70;99.60
6379;DHT22;3222;48.858;10.128;2022-09-09T15:43:55;20.70;99.40
6379;DHT22;3222;48.858;10.128;2022-09-09T15:46:26;20.70;99.50
6379;DHT22;3222;48.858;10.128;2022-09-09T15:48:53;20.50;99.50
6379;DHT22;3222;48.858;10.128;2022-09-09T15:51:20;20.40;99.40
6379;DHT22;3222;48.858;10.128;2022-09-09T15:53:46;20.40;99.60
6379;DHT22;3222;48.858;10.128;2022-09-09T15:56:12;20.60;99.10
6379;DHT22;3222;48.858;10.128;2022-09-09T15:58:37;20.40;99.20
6379;DHT22;3222;48.858;10.128;2022-09-09T16:01:03;20.30;99.40
6379;DHT22;3222;48.858;10.128;2022-09-09T16:03:33;20.30;99.40
6379;DHT22;3222;48.858;10.128;2022-09-09T16:05:59;20.20;99.30
6379;DHT22;3222;48.858;10.128;2022-09-09T16:08:31;20.30;99.40
6379;DHT22;3222;48.858;10.128;2022-09-09T16:10:58;20.40;99.00
6379;DHT22;3222;48.858;10.128;2022-09-09T16:13:29;20.20;99.20
6379;DHT22;3222;48.858;10.128;2022-09-09T16:15:58;20.10;99.40
6379;DHT22;3222;48.858;10.128;2022-09-09T16:18:24;20.30;99.10
6379;DHT22;3222;48.858;10.128;2022-09-09T16:20:55;20.30;98.60
6379;DHT22;3222;48.858;10.128;2022-09-09T16:23:21;20.30;98.60
6379;DHT22;3222;48.858;10.128;2022-09-09T16:25:54;20.20;98.70
6379;DHT22;3222;48.858;10.128;2022-09-09T16:28:20;20.10;98.80
6379;DHT22;3222;48.858;10.128;2022-09-09T16:30:46;20.20;98.50
6379;DHT22;3222;48.858;10.128;2022-09-09T16:33:11;20.10;98.60
6379;DHT22;3222;48.858;10.128;2022-09-09T16:35:40;20.10;98.80
6379;DHT22;3222;48.858;10.128;2022-09-09T16:38:06;19.90;98.90
6379;DHT22;3222;48.858;10.128;2022-09-09T16:40:36;19.80;98.80
6379;DHT22;3222;48.858;10.128;2022-09-09T16:43:03;19.80;98.80
6379;DHT22;3222;48.858;10.128;2022-09-09T16:45:28;19.90;98.70
6379;DHT22;3222;48.858;10.128;2022-09-09T16:47:55;19.80;98.70
6379;DHT22;3222;48.858;10.128;2022-09-09T16:50:21;19.60;98.80
6379;DHT22;3222;48.858;10.128;2022-09-09T16:52:47;19.60;98.90
6379;DHT22;3222;48.858;10.128;2022-09-09T16:55:13;19.70;98.80
6379;DHT22;3222;48.858;10.128;2022-09-09T16:57:39;19.60;98.70
6379;DHT22;3222;48.858;10.128;2022-09-09T17:00:05;19.50;99.00
6379;DHT22;3222;48.858;10.128;2022-09-09T17:02:32;19.50;98.80
6379;DHT22;3222;48.858;10.128;2022-09-09T17:04:58;19.50;98.90
6379;DHT22;3222;48.858;10.128;2022-09-09T17:07:24;19.40;98.80
6379;DHT22;3222;48.858;10.128;2022-09-09T17:09:50;19.30;99.00
6379;DHT22;3222;48.858;10.128;2022-09-09T17:12:16;19.30;99.00
6379;DHT22;3222;48.858;10.128;2022-09-09T17:14:42;19.30;98.90
6379;DHT22;3222;48.858;10.128;2022-09-09T17:17:08;19.30;98.90
6379;DHT22;3222;48.858;10.128;2022-09-09T17:19:34;19.10;99.10
6379;DHT22;3222;48.858;10.128;2022-09-09T17:21:59;19.00;99.30
6379;DHT22;3222;48.858;10.128;2022-09-09T17:24:28;18.90;99.40
6379;DHT22;3222;48.858;10.128;2022-09-09T17:26:54;19.00;99.80
6379;DHT22;3222;48.858;10.128;2022-09-09T17:29:21;18.90;99.80
6379;DHT22;3222;48.858;10.128;2022-09-09T17:31:46;18.80;99.80
6379;DHT22;3222;48.858;10.128;2022-09-09T17:34:12;18.70;99.90
6379;DHT22;3222;48.858;10.128;2022-09-09T17:36:38;18.70;99.90
6379;DHT22;3222;48.858;10.128;2022-09-09T17:39:05;18.70;99.90
6379;DHT22;3222;48.858;10.128;2022-09-09T17:41:35;18.60;99.90
6379;DHT22;3222;48.858;10.128;2022-09-09T17:44:01;18.50;99.90
6379;DHT22;3222;48.858;10.128;2022-09-09T17:46:32;18.50;99.90
6379;DHT22;3222;48.858;10.128;2022-09-09T17:49:01;18.50;99.90
6379;DHT22;3222;48.858;10.128;2022-09-09T17:51:29;18.40;99.90
6379;DHT22;3222;48.858;10.128;2022-09-09T17:54:03;18.40;99.90
6379;DHT22;3222;48.858;10.128;2022-09-09T17:56:31;18.40;99.90
6379;DHT22;3222;48.858;10.128;2022-09-09T17:58:58;18.40;99.90
6379;DHT22;3222;48.858;10.128;2022-09-09T18:01:27;18.50;99.90
6379;DHT22;3222;48.858;10.128;2022-09-09T18:03:54;18.50;99.90
6379;DHT22;3222;48.858;10.128;2022-09-09T18:06:24;18.50;99.90